sensor_id;sensor_type;location;lat;lon;timestamp;temperature;humidity
57030;DHT22;42920;45.306;20.448;2022-07-29T00:00:44;640.20;2432.00
57030;DHT22;42920;45.306;20.448;2022-07-29T00:03:13;640.20;2432.00
57030;DHT22;42920;45.306;20.448;2022-07-29T00:05:40;640.10;2432.00
57030;DHT22;42920;45.306;20.448;2022-07-29T00:08:07;640.00;2432.00
57030;DHT22;42920;45.306;20.448;2022-07-29T00:10:33;615.30;2432.00
57030;DHT22;42920;45.306;20.448;2022-07-29T00:12:59;615.20;2432.00
57030;DHT22;42920;45.306;20.448;2022-07-29T00:15:25;614.90;2432.00
57030;DHT22;42920;45.306;20.448;2022-07-29T00:17:51;615.20;2432.00
57030;DHT22;42920;45.306;20.448;2022-07-29T00:20:17;615.20;2432.00
57030;DHT22;42920;45.306;20.448;2022-07-29T00:22:43;615.20;2432.00
57030;DHT22;42920;45.306;20.448;2022-07-29T00:25:08;615.20;2432.00
57030;DHT22;42920;45.306;20.448;2022-07-29T00:27:37;615.30;2432.00
57030;DHT22;42920;45.306;20.448;2022-07-29T00:30:04;640.00;2432.00
57030;DHT22;42920;45.306;20.448;2022-07-29T00:32:30;640.00;2432.00
57030;DHT22;42920;45.306;20.448;2022-07-29T00:34:56;640.00;2432.00
57030;DHT22;42920;45.306;20.448;2022-07-29T00:37:40;640.00;2432.00
57030;DHT22;42920;45.306;20.448;2022-07-29T00:40:06;640.00;2432.00
57030;DHT22;42920;45.306;20.448;2022-07-29T00:42:53;640.10;2432.00
57030;DHT22;42920;45.306;20.448;2022-07-29T00:45:19;640.00;2432.00
57030;DHT22;42920;45.306;20.448;2022-07-29T00:47:45;615.30;2432.00
57030;DHT22;42920;45.306;20.448;2022-07-29T00:50:12;615.30;2432.00
57030;DHT22;42920;45.306;20.448;2022-07-29T00:52:39;615.10;2432.00
57030;DHT22;42920;45.306;20.448;2022-07-29T00:55:08;615.00;2432.00
57030;DHT22;42920;45.306;20.448;2022-07-29T00:57:38;614.90;2432.00
57030;DHT22;42920;45.306;20.448;2022-07-29T01:00:06;614.90;2432.00
57030;DHT22;42920;45.306;20.448;2022-07-29T01:02:33;614.80;2432.00
57030;DHT22;42920;45.306;20.448;2022-07-29T01:05:00;614.80;2432.00
57030;DHT22;42920;45.306;20.448;2022-07-29T01:07:26;614.80;2432.00
57030;DHT22;42920;45.306;20.448;2022-07-29T01:09:53;614.80;2432.00
57030;DHT22;42920;45.306;20.448;2022-07-29T01:12:24;614.70;2432.00
57030;DHT22;42920;45.306;20.448;2022-07-29T01:14:50;614.60;2432.00
57030;DHT22;42920;45.306;20.448;2022-07-29T01:17:36;614.50;2432.00
57030;DHT22;42920;45.306;20.448;2022-07-29T01:25:46;589.70;2432.00
57030;DHT22;42920;45.306;20.448;2022-07-29T01:31:00;589.70;2432.00
57030;DHT22;42920;45.306;20.448;2022-07-29T01:33:28;589.70;2432.00
57030;DHT22;42920;45.306;20.448;2022-07-29T01:36:23;589.70;2432.00
57030;DHT22;42920;45.306;20.448;2022-07-29T01:39:00;589.70;2432.00
57030;DHT22;42920;45.306;20.448;2022-07-29T01:41:30;589.70;2432.00
57030;DHT22;42920;45.306;20.448;2022-07-29T01:43:59;589.70;2432.00
57030;DHT22;42920;45.306;20.448;2022-07-29T01:46:34;589.70;2432.00
57030;DHT22;42920;45.306;20.448;2022-07-29T01:49:11;589.70;2432.00
57030;DHT22;42920;45.306;20.448;2022-07-29T01:51:53;589.70;2432.00
57030;DHT22;42920;45.306;20.448;2022-07-29T01:54:43;614.40;2432.00
57030;DHT22;42920;45.306;20.448;2022-07-29T01:57:12;614.40;2432.00
57030;DHT22;42920;45.306;20.448;2022-07-29T01:59:39;589.70;2432.00
57030;DHT22;42920;45.306;20.448;2022-07-29T02:02:07;614.40;2432.00
57030;DHT22;42920;45.306;20.448;2022-07-29T02:04:36;589.70;2432.00
57030;DHT22;42920;45.306;20.448;2022-07-29T02:07:06;589.70;2432.00
57030;DHT22;42920;45.306;20.448;2022-07-29T02:09:35;589.70;2432.00
57030;DHT22;42920;45.306;20.448;2022-07-29T02:12:03;614.40;2432.00
57030;DHT22;42920;45.306;20.448;2022-07-29T02:14:42;614.40;2432.00
57030;DHT22;42920;45.306;20.448;2022-07-29T02:17:11;589.70;2432.00
57030;DHT22;42920;45.306;20.448;2022-07-29T02:19:38;589.60;2432.00
57030;DHT22;42920;45.306;20.448;2022-07-29T02:22:06;589.50;2432.00
57030;DHT22;42920;45.306;20.448;2022-07-29T02:24:33;589.30;2432.00
57030;DHT22;42920;45.306;20.448;2022-07-29T02:27:00;589.30;2432.00
57030;DHT22;42920;45.306;20.448;2022-07-29T02:29:30;589.20;2432.00
57030;DHT22;42920;45.306;20.448;2022-07-29T02:31:58;589.20;2432.00
57030;DHT22;42920;45.306;20.448;2022-07-29T02:34:24;589.20;2432.00
57030;DHT22;42920;45.306;20.448;2022-07-29T02:36:52;589.20;2432.00
57030;DHT22;42920;45.306;20.448;2022-07-29T02:39:19;589.20;2432.00
57030;DHT22;42920;45.306;20.448;2022-07-29T02:41:53;589.20;2432.00
57030;DHT22;42920;45.306;20.448;2022-07-29T02:44:25;589.20;2432.00
57030;DHT22;42920;45.306;20.448;2022-07-29T02:47:04;589.30;2432.00
57030;DHT22;42920;45.306;20.448;2022-07-29T02:49:36;589.30;2432.00
57030;DHT22;42920;45.306;20.448;2022-07-29T02:55:04;589.20;2432.00
57030;DHT22;42920;45.306;20.448;2022-07-29T02:57:36;589.20;2432.00
57030;DHT22;42920;45.306;20.448;2022-07-29T03:00:07;589.40;2432.00
57030;DHT22;42920;45.306;20.448;2022-07-29T03:02:36;589.40;2432.00
57030;DHT22;42920;45.306;20.448;2022-07-29T03:05:04;589.40;2432.00
57030;DHT22;42920;45.306;20.448;2022-07-29T03:07:32;589.30;2432.00
57030;DHT22;42920;45.306;20.448;2022-07-29T03:09:59;589.20;2432.00
57030;DHT22;42920;45.306;20.448;2022-07-29T03:12:25;589.20;2432.00
57030;DHT22;42920;45.306;20.448;2022-07-29T03:14:52;589.10;2432.00
57030;DHT22;42920;45.306;20.448;2022-07-29T03:17:19;589.20;2432.00
57030;DHT22;42920;45.306;20.448;2022-07-29T03:19:45;589.10;2432.00
57030;DHT22;42920;45.306;20.448;2022-07-29T03:22:11;589.10;2432.00
57030;DHT22;42920;45.306;20.448;2022-07-29T03:24:37;589.00;2432.00
57030;DHT22;42920;45.306;20.448;2022-07-29T03:27:04;589.00;2432.00
57030;DHT22;42920;45.306;20.448;2022-07-29T03:29:31;589.00;2432.00
57030;DHT22;42920;45.306;20.448;2022-07-29T03:31:57;588.90;2432.00
57030;DHT22;42920;45.306;20.448;2022-07-29T03:34:23;588.90;2432.00
57030;DHT22;42920;45.306;20.448;2022-07-29T03:36:49;588.80;2432.00
57030;DHT22;42920;45.306;20.448;2022-07-29T03:39:18;564.10;2432.00
57030;DHT22;42920;45.306;20.448;2022-07-29T03:41:47;588.90;2432.00
57030;DHT22;42920;45.306;20.448;2022-07-29T03:44:15;588.80;2432.00
57030;DHT22;42920;45.306;20.448;2022-07-29T03:46:43;588.90;2432.00
57030;DHT22;42920;45.306;20.448;2022-07-29T03:49:11;588.90;2432.00
57030;DHT22;42920;45.306;20.448;2022-07-29T03:51:38;588.80;2432.00
57030;DHT22;42920;45.306;20.448;2022-07-29T03:54:05;588.90;2432.00
57030;DHT22;42920;45.306;20.448;2022-07-29T03:56:32;588.90;2432.00
57030;DHT22;42920;45.306;20.448;2022-07-29T03:59:01;588.90;2432.00
57030;DHT22;42920;45.306;20.448;2022-07-29T04:01:28;588.80;2432.00
57030;DHT22;42920;45.306;20.448;2022-07-29T04:03:55;589.00;2432.00
57030;DHT22;42920;45.306;20.448;2022-07-29T04:06:21;589.10;2432.00
57030;DHT22;42920;45.306;20.448;2022-07-29T04:08:46;589.10;2432.00
57030;DHT22;42920;45.306;20.448;2022-07-29T04:11:12;589.10;2432.00
57030;DHT22;42920;45.306;20.448;2022-07-29T04:13:38;589.00;2432.00
57030;DHT22;42920;45.306;20.448;2022-07-29T04:16:04;589.10;2432.00
57030;DHT22;42920;45.306;20.448;2022-07-29T04:18:30;589.10;2432.00
57030;DHT22;42920;45.306;20.448;2022-07-29T04:20:56;589.10;2432.00
57030;DHT22;42920;45.306;20.448;2022-07-29T04:23:24;589.10;2432.00
57030;DHT22;42920;45.306;20.448;2022-07-29T04:25:50;589.10;2432.00
57030;DHT22;42920;45.306;20.448;2022-07-29T04:28:16;589.20;2432.00
57030;DHT22;42920;45.306;20.448;2022-07-29T04:30:41;589.20;2432.00
57030;DHT22;42920;45.306;20.448;2022-07-29T04:33:07;589.30;2432.00
57030;DHT22;42920;45.306;20.448;2022-07-29T04:35:35;589.20;2432.00
57030;DHT22;42920;45.306;20.448;2022-07-29T04:38:01;589.30;2432.00
57030;DHT22;42920;45.306;20.448;2022-07-29T04:40:28;589.50;2432.00
57030;DHT22;42920;45.306;20.448;2022-07-29T04:42:54;589.60;2432.00
57030;DHT22;42920;45.306;20.448;2022-07-29T04:45:21;589.70;2432.00
57030;DHT22;42920;45.306;20.448;2022-07-29T04:47:47;589.70;2432.00
57030;DHT22;42920;45.306;20.448;2022-07-29T04:50:12;614.40;2432.00
57030;DHT22;42920;45.306;20.448;2022-07-29T04:52:38;614.40;2432.00
57030;DHT22;42920;45.306;20.448;2022-07-29T04:55:05;589.70;2432.00
57030;DHT22;42920;45.306;20.448;2022-07-29T04:57:30;589.70;2432.00
57030;DHT22;42920;45.306;20.448;2022-07-29T04:59:56;614.40;2432.00
57030;DHT22;42920;45.306;20.448;2022-07-29T05:02:22;614.40;2432.00
57030;DHT22;42920;45.306;20.448;2022-07-29T05:04:48;614.50;2432.00
57030;DHT22;42920;45.306;20.448;2022-07-29T05:07:14;614.60;2432.00
57030;DHT22;42920;45.306;20.448;2022-07-29T05:09:40;615.00;2432.00
57030;DHT22;42920;45.306;20.448;2022-07-29T05:12:07;614.60;2432.00
57030;DHT22;42920;45.306;20.448;2022-07-29T05:14:33;614.70;2432.00
57030;DHT22;42920;45.306;20.448;2022-07-29T05:16:58;614.70;2432.00
57030;DHT22;42920;45.306;20.448;2022-07-29T05:19:24;614.80;2432.00
57030;DHT22;42920;45.306;20.448;2022-07-29T05:21:50;614.80;2432.00
57030;DHT22;42920;45.306;20.448;2022-07-29T05:24:16;614.90;2432.00
57030;DHT22;42920;45.306;20.448;2022-07-29T05:26:42;615.00;2432.00
57030;DHT22;42920;45.306;20.448;2022-07-29T05:29:08;615.20;2432.00
57030;DHT22;42920;45.306;20.448;2022-07-29T05:31:34;615.20;2432.00
57030;DHT22;42920;45.306;20.448;2022-07-29T05:34:00;615.30;2432.00
57030;DHT22;42920;45.306;20.448;2022-07-29T05:36:26;640.00;2432.00
57030;DHT22;42920;45.306;20.448;2022-07-29T05:38:52;640.20;2432.00
57030;DHT22;42920;45.306;20.448;2022-07-29T05:41:18;640.30;2432.00
57030;DHT22;42920;45.306;20.448;2022-07-29T05:43:44;640.30;2432.00
57030;DHT22;42920;45.306;20.448;2022-07-29T05:46:10;640.50;2432.00
57030;DHT22;42920;45.306;20.448;2022-07-29T05:48:35;640.60;2432.00
57030;DHT22;42920;45.306;20.448;2022-07-29T05:51:01;640.70;2432.00
57030;DHT22;42920;45.306;20.448;2022-07-29T05:53:27;640.80;2432.00
57030;DHT22;42920;45.306;20.448;2022-07-29T05:55:53;640.90;2432.00
57030;DHT22;42920;45.306;20.448;2022-07-29T05:58:19;665.60;2432.00
57030;DHT22;42920;45.306;20.448;2022-07-29T06:00:45;665.90;2432.00
57030;DHT22;42920;45.306;20.448;2022-07-29T06:03:11;665.90;2432.00
57030;DHT22;42920;45.306;20.448;2022-07-29T06:08:04;666.20;2432.00
57030;DHT22;42920;45.306;20.448;2022-07-29T06:10:34;666.10;2432.00
57030;DHT22;42920;45.306;20.448;2022-07-29T06:13:00;666.30;2432.00
57030;DHT22;42920;45.306;20.448;2022-07-29T06:15:26;666.40;2432.00
57030;DHT22;42920;45.306;20.448;2022-07-29T06:17:52;666.50;2432.00
57030;DHT22;42920;45.306;20.448;2022-07-29T06:20:18;691.20;2432.00
57030;DHT22;42920;45.306;20.448;2022-07-29T06:22:44;691.20;2432.00
57030;DHT22;42920;45.306;20.448;2022-07-29T06:25:09;691.30;2432.00
57030;DHT22;42920;45.306;20.448;2022-07-29T06:27:35;691.40;2432.00
57030;DHT22;42920;45.306;20.448;2022-07-29T06:30:02;691.40;2432.00
57030;DHT22;42920;45.306;20.448;2022-07-29T06:32:28;691.30;2432.00
57030;DHT22;42920;45.306;20.448;2022-07-29T06:34:54;691.20;2432.00
57030;DHT22;42920;45.306;20.448;2022-07-29T06:37:19;691.30;2432.00
57030;DHT22;42920;45.306;20.448;2022-07-29T06:39:45;691.40;2432.00
57030;DHT22;42920;45.306;20.448;2022-07-29T06:42:11;691.50;2432.00
57030;DHT22;42920;45.306;20.448;2022-07-29T06:44:37;691.70;2432.00
57030;DHT22;42920;45.306;20.448;2022-07-29T06:47:03;691.90;2432.00
57030;DHT22;42920;45.306;20.448;2022-07-29T06:49:28;692.10;2432.00
57030;DHT22;42920;45.306;20.448;2022-07-29T06:51:55;716.80;2432.00
57030;DHT22;42920;45.306;20.448;2022-07-29T06:54:21;716.80;2432.00
57030;DHT22;42920;45.306;20.448;2022-07-29T06:56:47;716.80;2432.00
57030;DHT22;42920;45.306;20.448;2022-07-29T06:59:13;717.00;2432.00
57030;DHT22;42920;45.306;20.448;2022-07-29T07:01:41;717.10;2432.00
57030;DHT22;42920;45.306;20.448;2022-07-29T07:04:08;717.10;2432.00
57030;DHT22;42920;45.306;20.448;2022-07-29T07:06:34;717.20;2432.00
57030;DHT22;42920;45.306;20.448;2022-07-29T07:09:01;717.40;2380.80
57030;DHT22;42920;45.306;20.448;2022-07-29T07:11:27;717.50;2355.20
57030;DHT22;42920;45.306;20.448;2022-07-29T07:13:53;717.50;2355.20
57030;DHT22;42920;45.306;20.448;2022-07-29T07:16:19;717.70;2329.60
57030;DHT22;42920;45.306;20.448;2022-07-29T07:18:45;717.70;2304.00
57030;DHT22;42920;45.306;20.448;2022-07-29T07:21:11;742.40;2329.60
57030;DHT22;42920;45.306;20.448;2022-07-29T07:23:37;742.50;2329.60
57030;DHT22;42920;45.306;20.448;2022-07-29T07:26:02;742.60;2304.00
57030;DHT22;42920;45.306;20.448;2022-07-29T07:28:28;742.80;2227.20
57030;DHT22;42920;45.306;20.448;2022-07-29T07:30:54;742.70;2201.60
57030;DHT22;42920;45.306;20.448;2022-07-29T07:33:20;742.80;2176.00
57030;DHT22;42920;45.306;20.448;2022-07-29T07:35:46;742.80;2201.60
57030;DHT22;42920;45.306;20.448;2022-07-29T07:38:12;742.80;2150.40
57030;DHT22;42920;45.306;20.448;2022-07-29T07:40:38;742.90;2124.80
57030;DHT22;42920;45.306;20.448;2022-07-29T07:43:03;742.90;2124.80
57030;DHT22;42920;45.306;20.448;2022-07-29T07:45:29;743.00;2150.40
57030;DHT22;42920;45.306;20.448;2022-07-29T07:47:58;743.00;2124.80
57030;DHT22;42920;45.306;20.448;2022-07-29T07:50:23;743.20;2099.20
57030;DHT22;42920;45.306;20.448;2022-07-29T07:52:51;743.30;2048.00
57030;DHT22;42920;45.306;20.448;2022-07-29T07:55:18;768.00;2099.20
57030;DHT22;42920;45.306;20.448;2022-07-29T07:57:44;768.20;2048.00
57030;DHT22;42920;45.306;20.448;2022-07-29T08:00:12;768.20;2022.40
57030;DHT22;42920;45.306;20.448;2022-07-29T08:02:38;768.20;2048.00
57030;DHT22;42920;45.306;20.448;2022-07-29T08:05:06;768.30;2022.40
57030;DHT22;42920;45.306;20.448;2022-07-29T08:07:32;768.30;1996.80
57030;DHT22;42920;45.306;20.448;2022-07-29T08:09:58;768.40;2022.40
57030;DHT22;42920;45.306;20.448;2022-07-29T08:12:24;768.40;1996.80
57030;DHT22;42920;45.306;20.448;2022-07-29T08:14:49;768.40;1996.80
57030;DHT22;42920;45.306;20.448;2022-07-29T08:17:15;768.50;1996.80
57030;DHT22;42920;45.306;20.448;2022-07-29T08:19:41;768.60;1996.80
57030;DHT22;42920;45.306;20.448;2022-07-29T08:22:06;768.70;1945.60
57030;DHT22;42920;45.306;20.448;2022-07-29T08:24:32;768.90;1945.60
57030;DHT22;42920;45.306;20.448;2022-07-29T08:27:18;768.70;1920.00
57030;DHT22;42920;45.306;20.448;2022-07-29T08:29:44;768.70;1945.60
57030;DHT22;42920;45.306;20.448;2022-07-29T08:32:10;768.90;1945.60
57030;DHT22;42920;45.306;20.448;2022-07-29T08:34:36;793.60;1920.00
57030;DHT22;42920;45.306;20.448;2022-07-29T08:37:02;793.80;1920.00
57030;DHT22;42920;45.306;20.448;2022-07-29T08:39:28;793.70;1894.40
57030;DHT22;42920;45.306;20.448;2022-07-29T08:41:53;793.90;1920.00
57030;DHT22;42920;45.306;20.448;2022-07-29T08:44:20;794.00;1894.40
57030;DHT22;42920;45.306;20.448;2022-07-29T08:46:48;794.00;1843.20
57030;DHT22;42920;45.306;20.448;2022-07-29T08:49:13;794.00;1843.20
57030;DHT22;42920;45.306;20.448;2022-07-29T08:51:40;793.90;1843.20
57030;DHT22;42920;45.306;20.448;2022-07-29T08:54:08;794.10;1868.80
57030;DHT22;42920;45.306;20.448;2022-07-29T08:56:35;794.10;1817.60
57030;DHT22;42920;45.306;20.448;2022-07-29T08:59:03;794.20;1817.60
57030;DHT22;42920;45.306;20.448;2022-07-29T09:01:33;794.20;1792.00
57030;DHT22;42920;45.306;20.448;2022-07-29T09:03:59;794.20;1817.60
57030;DHT22;42920;45.306;20.448;2022-07-29T09:06:30;794.20;1817.60
57030;DHT22;42920;45.306;20.448;2022-07-29T09:08:59;794.10;1817.60
57030;DHT22;42920;45.306;20.448;2022-07-29T09:11:25;794.20;1792.00
57030;DHT22;42920;45.306;20.448;2022-07-29T09:13:51;794.00;1792.00
57030;DHT22;42920;45.306;20.448;2022-07-29T09:16:17;794.50;1792.00
57030;DHT22;42920;45.306;20.448;2022-07-29T09:18:45;794.50;1792.00
57030;DHT22;42920;45.306;20.448;2022-07-29T09:21:13;819.20;1792.00
57030;DHT22;42920;45.306;20.448;2022-07-29T09:24:06;819.30;1740.80
57030;DHT22;42920;45.306;20.448;2022-07-29T09:26:35;819.30;1740.80
57030;DHT22;42920;45.306;20.448;2022-07-29T09:29:11;819.60;1740.80
57030;DHT22;42920;45.306;20.448;2022-07-29T09:31:40;819.50;1715.20
57030;DHT22;42920;45.306;20.448;2022-07-29T09:34:06;819.60;1715.20
57030;DHT22;42920;45.306;20.448;2022-07-29T09:36:46;819.80;1715.20
57030;DHT22;42920;45.306;20.448;2022-07-29T09:39:13;819.90;1689.60
57030;DHT22;42920;45.306;20.448;2022-07-29T09:41:51;819.90;1689.60
57030;DHT22;42920;45.306;20.448;2022-07-29T09:44:21;820.00;1664.00
57030;DHT22;42920;45.306;20.448;2022-07-29T09:49:22;844.80;1664.00
57030;DHT22;42920;45.306;20.448;2022-07-29T09:51:51;819.90;1664.00
57030;DHT22;42920;45.306;20.448;2022-07-29T09:54:24;844.80;1689.60
57030;DHT22;42920;45.306;20.448;2022-07-29T09:56:54;844.90;1689.60
57030;DHT22;42920;45.306;20.448;2022-07-29T09:59:21;819.90;1664.00
57030;DHT22;42920;45.306;20.448;2022-07-29T10:01:49;820.00;1664.00
57030;DHT22;42920;45.306;20.448;2022-07-29T10:04:16;844.90;1664.00
57030;DHT22;42920;45.306;20.448;2022-07-29T10:06:59;845.20;1638.40
57030;DHT22;42920;45.306;20.448;2022-07-29T10:09:25;845.30;1638.40
57030;DHT22;42920;45.306;20.448;2022-07-29T10:14:31;845.60;1587.20
57030;DHT22;42920;45.306;20.448;2022-07-29T10:17:00;845.30;1612.80
57030;DHT22;42920;45.306;20.448;2022-07-29T10:19:30;844.90;1664.00
57030;DHT22;42920;45.306;20.448;2022-07-29T10:21:58;820.10;1638.40
57030;DHT22;42920;45.306;20.448;2022-07-29T10:24:26;845.20;1638.40
57030;DHT22;42920;45.306;20.448;2022-07-29T10:26:54;845.60;1612.80
57030;DHT22;42920;45.306;20.448;2022-07-29T10:29:21;870.40;1587.20
57030;DHT22;42920;45.306;20.448;2022-07-29T10:43:24;870.60;1536.00
57030;DHT22;42920;45.306;20.448;2022-07-29T10:45:57;845.60;1561.60
57030;DHT22;42920;45.306;20.448;2022-07-29T10:48:25;845.10;1612.80
57030;DHT22;42920;45.306;20.448;2022-07-29T10:51:01;845.30;1612.80
57030;DHT22;42920;45.306;20.448;2022-07-29T10:53:47;870.50;1561.60
57030;DHT22;42920;45.306;20.448;2022-07-29T10:56:30;870.80;1536.00
57030;DHT22;42920;45.306;20.448;2022-07-29T11:01:49;871.20;1510.40
57030;DHT22;42920;45.306;20.448;2022-07-29T11:04:16;870.80;1510.40
57030;DHT22;42920;45.306;20.448;2022-07-29T11:07:08;870.70;1536.00
57030;DHT22;42920;45.306;20.448;2022-07-29T11:09:34;871.10;1510.40
57030;DHT22;42920;45.306;20.448;2022-07-29T11:12:00;870.50;1510.40
57030;DHT22;42920;45.306;20.448;2022-07-29T11:17:15;870.80;1510.40
57030;DHT22;42920;45.306;20.448;2022-07-29T11:19:41;871.10;1484.80
57030;DHT22;42920;45.306;20.448;2022-07-29T11:22:09;871.30;1484.80
57030;DHT22;42920;45.306;20.448;2022-07-29T11:24:35;871.00;1510.40
57030;DHT22;42920;45.306;20.448;2022-07-29T11:27:19;870.70;1484.80
57030;DHT22;42920;45.306;20.448;2022-07-29T11:29:55;871.00;1484.80
57030;DHT22;42920;45.306;20.448;2022-07-29T11:32:24;870.90;1510.40
57030;DHT22;42920;45.306;20.448;2022-07-29T11:35:19;870.50;1536.00
57030;DHT22;42920;45.306;20.448;2022-07-29T11:38:23;845.60;1561.60
57030;DHT22;42920;45.306;20.448;2022-07-29T11:40:33;870.70;1510.40
57030;DHT22;42920;45.306;20.448;2022-07-29T11:42:59;871.10;1433.60
57030;DHT22;42920;45.306;20.448;2022-07-29T11:45:26;871.30;1408.00
57030;DHT22;42920;45.306;20.448;2022-07-29T11:47:56;871.20;1433.60
57030;DHT22;42920;45.306;20.448;2022-07-29T11:50:32;896.20;1433.60
57030;DHT22;42920;45.306;20.448;2022-07-29T11:52:59;896.40;1433.60
57030;DHT22;42920;45.306;20.448;2022-07-29T11:55:25;896.30;1433.60
57030;DHT22;42920;45.306;20.448;2022-07-29T11:57:54;896.10;1433.60
57030;DHT22;42920;45.306;20.448;2022-07-29T12:00:30;896.20;1408.00
57030;DHT22;42920;45.306;20.448;2022-07-29T12:02:59;896.30;1433.60
57030;DHT22;42920;45.306;20.448;2022-07-29T12:05:39;896.80;1408.00
57030;DHT22;42920;45.306;20.448;2022-07-29T12:10:35;896.60;1382.40
57030;DHT22;42920;45.306;20.448;2022-07-29T12:13:01;896.30;1408.00
57030;DHT22;42920;45.306;20.448;2022-07-29T12:15:27;896.80;1382.40
57030;DHT22;42920;45.306;20.448;2022-07-29T12:17:53;896.90;1356.80
57030;DHT22;42920;45.306;20.448;2022-07-29T12:20:27;921.70;1382.40
57030;DHT22;42920;45.306;20.448;2022-07-29T12:22:54;921.80;1356.80
57030;DHT22;42920;45.306;20.448;2022-07-29T12:25:22;921.90;1382.40
57030;DHT22;42920;45.306;20.448;2022-07-29T12:27:58;921.70;1382.40
57030;DHT22;42920;45.306;20.448;2022-07-29T12:30:43;896.90;1356.80
57030;DHT22;42920;45.306;20.448;2022-07-29T12:35:48;921.80;1382.40
57030;DHT22;42920;45.306;20.448;2022-07-29T12:38:15;921.80;1356.80
57030;DHT22;42920;45.306;20.448;2022-07-29T12:40:42;921.70;1356.80
57030;DHT22;42920;45.306;20.448;2022-07-29T12:43:09;896.90;1305.60
57030;DHT22;42920;45.306;20.448;2022-07-29T12:45:39;921.70;1331.20
57030;DHT22;42920;45.306;20.448;2022-07-29T12:48:06;922.00;1305.60
57030;DHT22;42920;45.306;20.448;2022-07-29T12:50:35;922.00;1331.20
57030;DHT22;42920;45.306;20.448;2022-07-29T12:53:19;922.10;1305.60
57030;DHT22;42920;45.306;20.448;2022-07-29T12:55:48;922.10;1305.60
57030;DHT22;42920;45.306;20.448;2022-07-29T12:58:40;921.90;1280.00
57030;DHT22;42920;45.306;20.448;2022-07-29T13:01:09;921.90;1305.60
57030;DHT22;42920;45.306;20.448;2022-07-29T13:03:45;922.00;1280.00
57030;DHT22;42920;45.306;20.448;2022-07-29T13:06:39;922.00;1280.00
57030;DHT22;42920;45.306;20.448;2022-07-29T13:09:08;922.10;1280.00
57030;DHT22;42920;45.306;20.448;2022-07-29T13:11:39;922.10;1280.00
57030;DHT22;42920;45.306;20.448;2022-07-29T13:14:07;922.00;1280.00
57030;DHT22;42920;45.306;20.448;2022-07-29T13:16:34;922.00;1280.00
57030;DHT22;42920;45.306;20.448;2022-07-29T13:19:08;922.00;1254.40
57030;DHT22;42920;45.306;20.448;2022-07-29T13:21:35;922.30;1203.20
57030;DHT22;42920;45.306;20.448;2022-07-29T13:24:01;922.30;1228.80
57030;DHT22;42920;45.306;20.448;2022-07-29T13:26:27;922.30;1254.40
57030;DHT22;42920;45.306;20.448;2022-07-29T13:28:54;922.30;1228.80
57030;DHT22;42920;45.306;20.448;2022-07-29T13:31:20;922.20;1228.80
57030;DHT22;42920;45.306;20.448;2022-07-29T13:33:46;922.30;1228.80
57030;DHT22;42920;45.306;20.448;2022-07-29T13:36:13;922.10;1228.80
57030;DHT22;42920;45.306;20.448;2022-07-29T13:38:39;922.50;1203.20
57030;DHT22;42920;45.306;20.448;2022-07-29T13:41:05;922.50;1228.80
57030;DHT22;42920;45.306;20.448;2022-07-29T13:43:31;922.50;1203.20
57030;DHT22;42920;45.306;20.448;2022-07-29T13:45:56;922.50;1203.20
57030;DHT22;42920;45.306;20.448;2022-07-29T13:48:22;922.50;1203.20
57030;DHT22;42920;45.306;20.448;2022-07-29T13:50:48;922.40;1203.20
57030;DHT22;42920;45.306;20.448;2022-07-29T13:53:14;922.50;1203.20
57030;DHT22;42920;45.306;20.448;2022-07-29T13:55:39;922.50;1203.20
57030;DHT22;42920;45.306;20.448;2022-07-29T13:58:05;922.50;1203.20
57030;DHT22;42920;45.306;20.448;2022-07-29T14:00:31;922.50;1203.20
57030;DHT22;42920;45.306;20.448;2022-07-29T14:02:57;947.20;1177.60
57030;DHT22;42920;45.306;20.448;2022-07-29T14:05:22;947.30;1177.60
57030;DHT22;42920;45.306;20.448;2022-07-29T14:07:48;947.40;1177.60
57030;DHT22;42920;45.306;20.448;2022-07-29T14:10:14;922.50;1203.20
57030;DHT22;42920;45.306;20.448;2022-07-29T14:12:40;947.30;1177.60
57030;DHT22;42920;45.306;20.448;2022-07-29T14:15:07;947.20;1203.20
57030;DHT22;42920;45.306;20.448;2022-07-29T14:17:33;922.50;1203.20
57030;DHT22;42920;45.306;20.448;2022-07-29T14:20:00;947.20;1203.20
57030;DHT22;42920;45.306;20.448;2022-07-29T14:22:25;947.20;1177.60
57030;DHT22;42920;45.306;20.448;2022-07-29T14:24:51;922.50;1203.20
57030;DHT22;42920;45.306;20.448;2022-07-29T14:27:17;922.50;1203.20
57030;DHT22;42920;45.306;20.448;2022-07-29T14:29:43;922.50;1203.20
57030;DHT22;42920;45.306;20.448;2022-07-29T14:32:09;947.20;1203.20
57030;DHT22;42920;45.306;20.448;2022-07-29T14:34:36;947.30;1203.20
57030;DHT22;42920;45.306;20.448;2022-07-29T14:37:03;922.50;1203.20
57030;DHT22;42920;45.306;20.448;2022-07-29T14:39:31;922.50;1203.20
57030;DHT22;42920;45.306;20.448;2022-07-29T14:41:56;922.50;1203.20
57030;DHT22;42920;45.306;20.448;2022-07-29T14:44:22;922.50;1203.20
57030;DHT22;42920;45.306;20.448;2022-07-29T14:46:49;922.30;1203.20
57030;DHT22;42920;45.306;20.448;2022-07-29T14:49:15;922.10;1203.20
57030;DHT22;42920;45.306;20.448;2022-07-29T14:51:40;922.00;1203.20
57030;DHT22;42920;45.306;20.448;2022-07-29T14:54:07;922.10;1203.20
57030;DHT22;42920;45.306;20.448;2022-07-29T14:56:32;922.30;1203.20
57030;DHT22;42920;45.306;20.448;2022-07-29T14:58:58;922.00;1203.20
57030;DHT22;42920;45.306;20.448;2022-07-29T15:01:24;922.40;1203.20
57030;DHT22;42920;45.306;20.448;2022-07-29T15:03:51;922.30;1203.20
57030;DHT22;42920;45.306;20.448;2022-07-29T15:06:16;922.10;1203.20
57030;DHT22;42920;45.306;20.448;2022-07-29T15:08:42;922.30;1203.20
57030;DHT22;42920;45.306;20.448;2022-07-29T15:11:08;922.30;1203.20
57030;DHT22;42920;45.306;20.448;2022-07-29T15:13:34;922.10;1203.20
57030;DHT22;42920;45.306;20.448;2022-07-29T15:16:09;922.00;1228.80
57030;DHT22;42920;45.306;20.448;2022-07-29T15:18:35;922.10;1228.80
57030;DHT22;42920;45.306;20.448;2022-07-29T15:21:03;922.10;1228.80
57030;DHT22;42920;45.306;20.448;2022-07-29T15:23:31;922.10;1228.80